Saratov, Russia

7:54 AM MSK on September 23, 2014 (GMT +0400)
Saratov City Park | Change Station
CLOSE
Current Station
Personal Weather Station
Location: Saratov, SARATOV REGION
Elevation: 203 ft
Nearby Weather Stations

Elev 203 ft 51.52 °N, 46.00 °E | Updated 3 minutes ago

Clear
Clear
48.7 °F
Feels Like 49 °F
N
2.0
Wind Variable Wind from West
Gusts 3.0 mph

Today
High -- | Low -- °F
--% Chance of Precip.
Yesterday
High -- | Low -- °F
Precip. -- in
6:43 AM 6:52 PM
Waning Crescent, 1% visible
Pressure 30.01 in
Visibility -9999.0 miles
Clouds
Windchill 49 °F
Dew Point 32 °F
Humidity 52%
Rainfall 0.00 in
Snow Depth Not available.
UV Not available.
Pollen Not available.
Air Quality Not available.
Flu Activity Not available.
METAR UWSS 230330Z VRB01MPS CAVOK 08/01 Q1016 120///60 NOSIG RMK QFE750

More Conditions Fewer Conditions

Pressure 30.01 in
Visibility -9999.0 miles
Clouds
Windchill 49 °F
Dew Point 32 °F
Humidity 52%
Rainfall 0.00 in
Snow Depth Not available.
UV Not available.
Pollen Not available.
Air Quality Not available.
Flu Activity Not available.
METAR UWSS 230330Z VRB01MPS CAVOK 08/01 Q1016 120///60 NOSIG RMK QFE750

More Conditions Fewer Conditions

10-Day Weather Forecast

Almanac

Astronomy

Sep. 23, 2014 Rise Set
Actual Time 6:43 AM MSK 6:52 PM MSK
Civil Twilight 6:09 AM MSK 7:25 PM MSK
Nautical Twilight 5:30 AM MSK 8:05 PM MSK
Astronomical Twilight 4:49 AM MSK 8:46 PM MSK
Moon 5:42 AM MSK 6:19 PM MSK
Length of Visible Light 13h 16m
Length of Day
12h 09m
Tomorrow will be 3m 54s shorter.
Waning Crescent, 1% of the Moon is Illuminated
Sep 22
Waning Crescent
Sep 24
New
Oct 1
First Quarter
Oct 8
Full
Oct 15
Last Quarter

Yesterday's Extremes

Country Highs Country Lows

Community

WunderPhotos

Upload Photos

1,755,606 photos uploaded!

Nearby

Snow Depth

Not available.

Earthquake Activity

City Distance Mag. Time & Date
No recent earthquake activity has been reported nearby.
Minimum magnitude displayed is 2.5.

Coastal Water Temperatures

Place Temperature
No Stations Reporting

Nearby Weather Stations